Time;durP1;ratioP1;P1;durP2;ratioP2;P2;SDS_P1;SDS_P2;PMS_P1;PMS_P2;Temp;Humidity;BMP_temperature;BMP_pressure;BME280_temperature;BME280_humidity;BME280_pressure;Samples;Min_cycle;Max_cycle;Signal;HPM_P1;HPM_P2
2021/11/15 00:01:19;;;;;;;101.68;58.50;;;;;;;;;;5038441;28;20021;-46
2021/11/15 00:03:47;;;;;;;101.50;63.03;;;;;;;;;;5052082;28;20025;-47
2021/11/15 00:06:15;;;;;;;90.53;56.03;;;;;;;;;;5052898;28;20090;-46
2021/11/15 00:08:44;;;;;;;95.03;59.08;;;;;;;;;;5053181;28;20013;-46
2021/11/15 00:11:11;;;;;;;111.20;68.82;;;;;;;;;;5051423;28;20408;-44
2021/11/15 00:13:38;;;;;;;92.65;58.83;;;;;;;;;;5052669;28;20029;-46
2021/11/15 00:16:05;;;;;;;131.23;78.13;;;;;;;;;;5052674;28;20031;-45
2021/11/15 00:18:31;;;;;;;102.13;64.25;;;;;;;;;;5052632;28;20028;-47
2021/11/15 00:20:59;;;;;;;103.38;64.82;;;;;;;;;;5052476;28;20150;-45
2021/11/15 00:23:26;;;;;;;96.80;55.83;;;;;;;;;;5052497;28;20026;-45
2021/11/15 00:25:52;;;;;;;89.10;54.53;;;;;;;;;;5052519;28;20082;-45
2021/11/15 00:28:19;;;;;;;92.50;55.80;;;;;;;;;;5052522;28;20326;-47
2021/11/15 00:30:45;;;;;;;98.63;62.33;;;;;;;;;;5052581;28;20477;-47
2021/11/15 00:33:11;;;;;;;136.32;78.38;;;;;;;;;;5052431;28;20037;-47
2021/11/15 00:35:37;;;;;;;110.43;64.35;;;;;;;;;;5052401;28;20021;-46
2021/11/15 00:38:04;;;;;;;121.43;72.13;;;;;;;;;;5052524;28;20044;-45
2021/11/15 00:40:30;;;;;;;108.15;66.03;;;;;;;;;;5052374;28;20112;-45
2021/11/15 00:42:58;;;;;;;109.57;66.10;;;;;;;;;;5052506;28;20087;-46
2021/11/15 00:45:25;;;;;;;126.93;72.85;;;;;;;;;;5052413;28;20040;-47
2021/11/15 00:47:51;;;;;;;128.88;73.47;;;;;;;;;;5052218;28;20025;-46
2021/11/15 00:50:18;;;;;;;166.85;95.22;;;;;;;;;;5052241;28;20040;-45
2021/11/15 00:52:45;;;;;;;115.60;71.43;;;;;;;;;;5052051;28;20071;-46
2021/11/15 00:55:11;;;;;;;120.20;72.45;;;;;;;;;;5052407;28;20057;-47
2021/11/15 00:57:37;;;;;;;110.85;68.55;;;;;;;;;;5052410;28;20031;-44
2021/11/15 01:00:05;;;;;;;133.55;78.88;;;;;;;;;;5052204;28;20114;-47
2021/11/15 01:02:31;;;;;;;128.82;74.55;;;;;;;;;;5052232;28;20021;-45
2021/11/15 01:04:58;;;;;;;116.13;66.40;;;;;;;;;;5052310;28;20471;-47
2021/11/15 01:07:26;;;;;;;112.93;67.40;;;;;;;;;;5052236;28;20029;-47
2021/11/15 01:09:52;;;;;;;118.43;69.80;;;;;;;;;;5052062;28;20040;-46
2021/11/15 01:12:18;;;;;;;124.95;71.10;;;;;;;;;;5052206;28;20034;-46
2021/11/15 01:14:45;;;;;;;112.45;67.20;;;;;;;;;;5053942;28;20040;-46
2021/11/15 01:17:11;;;;;;;125.78;72.43;;;;;;;;;;5055598;28;20025;-45
2021/11/15 01:19:37;;;;;;;108.65;65.88;;;;;;;;;;5055601;28;20104;-46
2021/11/15 01:22:04;;;;;;;112.68;68.63;;;;;;;;;;5055559;28;20036;-46
2021/11/15 01:24:30;;;;;;;149.50;91.75;;;;;;;;;;5055447;28;20037;-44
2021/11/15 01:26:56;;;;;;;113.97;67.68;;;;;;;;;;5055518;28;20025;-44
2021/11/15 01:29:22;;;;;;;123.53;72.30;;;;;;;;;;5055461;28;20029;-45
2021/11/15 01:31:49;;;;;;;168.10;97.88;;;;;;;;;;5055420;28;20017;-45
2021/11/15 01:34:15;;;;;;;119.03;68.07;;;;;;;;;;5055409;28;20035;-46
2021/11/15 01:36:41;;;;;;;100.70;62.05;;;;;;;;;;5055327;28;20025;-45
2021/11/15 01:39:07;;;;;;;110.50;65.57;;;;;;;;;;5055492;28;20051;-46
2021/11/15 01:41:34;;;;;;;105.68;62.45;;;;;;;;;;5055276;28;20108;-46
2021/11/15 01:44:00;;;;;;;125.38;74.78;;;;;;;;;;5055235;28;20033;-46
2021/11/15 01:46:28;;;;;;;119.10;71.72;;;;;;;;;;5054907;28;20033;-46
2021/11/15 01:48:54;;;;;;;113.85;66.75;;;;;;;;;;5055088;28;20509;-46
2021/11/15 01:51:21;;;;;;;113.55;69.53;;;;;;;;;;5054859;28;20489;-47
2021/11/15 01:53:47;;;;;;;114.10;66.13;;;;;;;;;;5054955;28;20052;-48
2021/11/15 01:56:13;;;;;;;104.13;61.63;;;;;;;;;;5055099;28;20017;-46
2021/11/15 01:58:39;;;;;;;102.63;62.92;;;;;;;;;;5055085;28;20025;-46
2021/11/15 02:01:05;;;;;;;108.88;64.45;;;;;;;;;;5054939;28;20025;-46
2021/11/15 02:03:32;;;;;;;108.82;63.47;;;;;;;;;;5055080;28;20029;-46
2021/11/15 02:05:59;;;;;;;116.30;66.85;;;;;;;;;;5054994;28;20175;-46
2021/11/15 02:08:25;;;;;;;104.22;63.17;;;;;;;;;;5053621;28;20017;-45
2021/11/15 02:10:54;;;;;;;120.70;67.65;;;;;;;;;;5054806;28;20066;-45
2021/11/15 02:13:21;;;;;;;109.47;64.80;;;;;;;;;;5054873;28;20481;-45
2021/11/15 02:15:48;;;;;;;112.60;65.05;;;;;;;;;;5054687;28;20040;-46
2021/11/15 02:18:14;;;;;;;112.90;65.00;;;;;;;;;;5054604;28;20025;-45
2021/11/15 02:20:43;;;;;;;107.93;63.67;;;;;;;;;;5054533;28;20044;-46
2021/11/15 02:23:09;;;;;;;112.65;65.05;;;;;;;;;;5054520;28;20036;-46
2021/11/15 02:25:35;;;;;;;103.45;61.60;;;;;;;;;;5053664;28;20033;-47
2021/11/15 02:28:02;;;;;;;115.53;65.80;;;;;;;;;;5054446;28;20388;-45
2021/11/15 02:30:28;;;;;;;122.28;70.20;;;;;;;;;;5054377;28;20074;-46
2021/11/15 02:32:55;;;;;;;111.82;63.42;;;;;;;;;;5054365;28;20025;-46
2021/11/15 02:35:22;;;;;;;102.07;60.13;;;;;;;;;;5054305;28;20029;-46
2021/11/15 02:37:48;;;;;;;103.38;59.53;;;;;;;;;;5054352;28;20025;-46
2021/11/15 02:40:15;;;;;;;115.95;64.18;;;;;;;;;;5054470;28;20021;-46
2021/11/15 02:42:42;;;;;;;116.13;67.53;;;;;;;;;;5054266;28;20021;-46
2021/11/15 02:45:09;;;;;;;120.63;64.68;;;;;;;;;;5053988;28;20033;-45
2021/11/15 02:47:35;;;;;;;112.50;64.18;;;;;;;;;;5054118;28;20021;-46
2021/11/15 02:50:02;;;;;;;111.80;65.22;;;;;;;;;;5053890;28;20047;-45
2021/11/15 02:52:29;;;;;;;115.55;66.20;;;;;;;;;;5053661;28;20053;-45
2021/11/15 02:54:59;;;;;;;115.57;64.38;;;;;;;;;;5053879;28;20086;-46
2021/11/15 02:57:25;;;;;;;106.47;59.83;;;;;;;;;;5053937;28;20044;-45
2021/11/15 02:59:52;;;;;;;100.50;58.30;;;;;;;;;;5054489;28;20082;-46
2021/11/15 03:02:24;;;;;;;103.70;58.35;;;;;;;;;;5053771;28;20029;-45
2021/11/15 03:04:50;;;;;;;110.93;62.47;;;;;;;;;;5053963;28;20104;-47
2021/11/15 03:07:17;;;;;;;111.13;62.78;;;;;;;;;;5053732;28;20021;-46
2021/11/15 03:09:43;;;;;;;114.93;62.92;;;;;;;;;;5053739;28;20492;-47
2021/11/15 03:12:09;;;;;;;113.18;64.03;;;;;;;;;;5053585;28;20060;-47
2021/11/15 03:14:36;;;;;;;117.72;62.63;;;;;;;;;;5053644;28;20415;-46
2021/11/15 03:17:02;;;;;;;110.78;63.42;;;;;;;;;;5053503;28;20078;-46
2021/11/15 03:19:28;;;;;;;112.30;61.33;;;;;;;;;;5053729;28;20065;-46
2021/11/15 03:21:55;;;;;;;107.15;60.05;;;;;;;;;;5053573;28;20035;-46
2021/11/15 03:24:21;;;;;;;110.60;58.92;;;;;;;;;;5053109;28;20444;-46
2021/11/15 03:26:47;;;;;;;114.50;60.95;;;;;;;;;;5053869;28;20036;-46
2021/11/15 03:29:13;;;;;;;119.78;60.45;;;;;;;;;;5053455;28;20402;-46
2021/11/15 03:31:40;;;;;;;108.45;59.08;;;;;;;;;;5053199;28;20029;-46
2021/11/15 03:34:08;;;;;;;117.13;60.72;;;;;;;;;;5053471;28;20025;-47
2021/11/15 03:36:34;;;;;;;115.43;59.67;;;;;;;;;;5053333;28;20025;-46
2021/11/15 03:39:01;;;;;;;114.78;59.10;;;;;;;;;;5053064;28;20021;-45
2021/11/15 03:41:28;;;;;;;115.05;59.53;;;;;;;;;;5053073;28;20029;-45
2021/11/15 03:43:54;;;;;;;114.88;58.92;;;;;;;;;;5053211;28;20021;-45
2021/11/15 03:46:21;;;;;;;110.10;58.55;;;;;;;;;;5052811;28;20111;-45
2021/11/15 03:48:47;;;;;;;108.05;58.15;;;;;;;;;;5053004;28;20545;-48
2021/11/15 03:51:13;;;;;;;118.30;58.15;;;;;;;;;;5052914;28;20040;-45
2021/11/15 03:53:41;;;;;;;109.15;58.42;;;;;;;;;;5052853;28;20063;-45
2021/11/15 03:56:11;;;;;;;110.78;57.72;;;;;;;;;;5053021;28;20050;-46
2021/11/15 03:58:37;;;;;;;116.00;59.85;;;;;;;;;;5052798;28;20036;-46
2021/11/15 04:01:04;;;;;;;107.13;56.65;;;;;;;;;;5052712;28;20021;-46
2021/11/15 04:03:32;;;;;;;107.90;56.35;;;;;;;;;;5052859;28;20025;-47
2021/11/15 04:06:04;;;;;;;106.18;55.85;;;;;;;;;;5052918;28;20032;-46
2021/11/15 04:08:31;;;;;;;104.63;56.08;;;;;;;;;;5052787;28;20049;-45
2021/11/15 04:10:58;;;;;;;117.70;60.90;;;;;;;;;;5052819;28;20104;-45
2021/11/15 04:13:26;;;;;;;113.90;57.00;;;;;;;;;;5052740;28;20029;-45
2021/11/15 04:15:55;;;;;;;112.70;59.05;;;;;;;;;;5052672;28;20024;-46
2021/11/15 04:18:22;;;;;;;106.78;55.05;;;;;;;;;;5052578;28;20079;-45
2021/11/15 04:20:49;;;;;;;109.82;57.60;;;;;;;;;;5052679;28;20499;-46
2021/11/15 04:23:15;;;;;;;110.53;54.25;;;;;;;;;;5052644;28;20029;-46
2021/11/15 04:25:41;;;;;;;106.53;55.58;;;;;;;;;;5052617;28;20029;-47
2021/11/15 04:28:10;;;;;;;100.88;52.40;;;;;;;;;;5052648;28;20017;-47
2021/11/15 04:30:37;;;;;;;109.90;55.10;;;;;;;;;;5053067;28;20035;-45
2021/11/15 04:33:04;;;;;;;102.97;53.50;;;;;;;;;;5052556;28;20021;-48
2021/11/15 04:35:30;;;;;;;122.43;61.38;;;;;;;;;;5052504;28;20029;-46
2021/11/15 04:37:56;;;;;;;136.27;65.70;;;;;;;;;;5052456;28;20138;-46
2021/11/15 04:40:23;;;;;;;140.63;65.13;;;;;;;;;;5052441;28;20029;-45
2021/11/15 04:42:49;;;;;;;115.00;58.90;;;;;;;;;;5052329;28;20461;-45
2021/11/15 04:45:17;;;;;;;117.60;59.83;;;;;;;;;;5052166;28;20450;-45
2021/11/15 04:47:44;;;;;;;116.82;58.63;;;;;;;;;;5052479;28;20033;-45
2021/11/15 04:50:11;;;;;;;111.22;54.10;;;;;;;;;;5055122;28;20040;-45
2021/11/15 04:52:40;;;;;;;103.50;54.55;;;;;;;;;;5056089;28;20049;-45
2021/11/15 04:55:08;;;;;;;111.93;54.72;;;;;;;;;;5056271;28;20354;-46
2021/11/15 04:57:36;;;;;;;110.28;57.22;;;;;;;;;;5056303;28;20109;-48
2021/11/15 05:00:07;;;;;;;113.30;58.55;;;;;;;;;;5056096;28;20040;-45
2021/11/15 05:02:33;;;;;;;119.80;59.63;;;;;;;;;;5056196;28;20021;-46
2021/11/15 05:04:59;;;;;;;121.65;60.55;;;;;;;;;;5056025;28;20120;-45
2021/11/15 05:07:25;;;;;;;120.30;60.40;;;;;;;;;;5056005;28;20441;-46
2021/11/15 05:09:51;;;;;;;117.93;58.55;;;;;;;;;;5054519;28;20381;-46
2021/11/15 05:12:18;;;;;;;129.90;61.47;;;;;;;;;;5055864;28;20103;-46
2021/11/15 05:14:44;;;;;;;141.63;62.72;;;;;;;;;;5055922;28;20025;-46
2021/11/15 05:17:10;;;;;;;136.45;65.30;;;;;;;;;;5055752;28;20116;-46
2021/11/15 05:19:36;;;;;;;140.88;64.93;;;;;;;;;;5055804;28;20017;-46
2021/11/15 05:22:02;;;;;;;137.85;61.30;;;;;;;;;;5055801;28;20071;-46
2021/11/15 05:24:28;;;;;;;126.45;60.17;;;;;;;;;;5055695;28;20025;-46
2021/11/15 05:26:54;;;;;;;132.57;64.38;;;;;;;;;;5055745;28;20111;-46
2021/11/15 05:29:21;;;;;;;121.15;60.83;;;;;;;;;;5055675;28;20021;-47
2021/11/15 05:31:47;;;;;;;123.32;62.63;;;;;;;;;;5055610;28;20025;-47
2021/11/15 05:34:13;;;;;;;124.20;60.65;;;;;;;;;;5055682;28;20103;-45
2021/11/15 05:36:39;;;;;;;133.65;63.72;;;;;;;;;;5055504;28;20104;-46
2021/11/15 05:39:05;;;;;;;122.70;62.17;;;;;;;;;;5055444;28;20051;-47
2021/11/15 05:41:34;;;;;;;117.45;61.88;;;;;;;;;;5055554;28;20031;-47
2021/11/15 05:44:00;;;;;;;134.77;68.68;;;;;;;;;;5055546;28;20024;-47
2021/11/15 05:46:27;;;;;;;132.52;70.50;;;;;;;;;;5055302;28;20037;-47
2021/11/15 05:48:53;;;;;;;128.38;66.30;;;;;;;;;;5055374;28;20029;-47
2021/11/15 05:51:19;;;;;;;126.38;60.20;;;;;;;;;;5054968;28;20045;-47
2021/11/15 05:53:46;;;;;;;134.05;60.63;;;;;;;;;;5055124;28;20025;-47
2021/11/15 05:56:13;;;;;;;136.02;62.50;;;;;;;;;;5055089;28;20025;-46
2021/11/15 05:58:39;;;;;;;128.18;60.08;;;;;;;;;;5054875;28;20056;-46
2021/11/15 06:01:05;;;;;;;118.72;57.85;;;;;;;;;;5053888;28;20025;-46
2021/11/15 06:03:31;;;;;;;120.60;60.05;;;;;;;;;;5054999;28;20024;-46
2021/11/15 06:06:00;;;;;;;113.10;59.83;;;;;;;;;;5055022;28;20029;-46
2021/11/15 06:08:26;;;;;;;116.00;61.00;;;;;;;;;;5054812;28;20025;-46
2021/11/15 06:10:53;;;;;;;138.82;66.55;;;;;;;;;;5054914;28;20029;-47
2021/11/15 06:13:22;;;;;;;114.30;61.65;;;;;;;;;;5054751;28;20028;-46
2021/11/15 06:15:48;;;;;;;104.47;56.42;;;;;;;;;;5054988;28;20473;-47
2021/11/15 06:18:15;;;;;;;109.32;54.47;;;;;;;;;;5054606;28;20108;-47
2021/11/15 06:20:42;;;;;;;101.45;55.25;;;;;;;;;;5054579;28;20056;-47
2021/11/15 06:23:08;;;;;;;100.05;54.53;;;;;;;;;;5054641;28;20091;-47
2021/11/15 06:25:34;;;;;;;96.97;54.15;;;;;;;;;;5054501;28;20481;-46
2021/11/15 06:28:01;;;;;;;109.57;55.40;;;;;;;;;;5054597;28;20377;-47
2021/11/15 06:30:28;;;;;;;108.28;55.35;;;;;;;;;;5053266;28;20469;-47
2021/11/15 06:32:54;;;;;;;146.30;53.28;;;;;;;;;;5054765;28;20029;-47
2021/11/15 06:35:20;;;;;;;110.50;52.10;;;;;;;;;;5054555;28;20021;-47
2021/11/15 06:37:46;;;;;;;118.03;54.90;;;;;;;;;;5054412;28;20025;-46
2021/11/15 06:40:13;;;;;;;127.93;58.25;;;;;;;;;;5054221;28;20029;-47
2021/11/15 06:42:42;;;;;;;193.93;85.10;;;;;;;;;;5054115;28;20052;-46
2021/11/15 06:45:08;;;;;;;181.52;68.30;;;;;;;;;;5054057;28;20037;-47
2021/11/15 06:47:38;;;;;;;147.23;63.97;;;;;;;;;;5054086;28;20032;-47
2021/11/15 06:50:06;;;;;;;135.70;54.30;;;;;;;;;;5054201;28;20025;-46
2021/11/15 06:52:32;;;;;;;135.30;57.55;;;;;;;;;;5053797;28;20079;-46
2021/11/15 06:54:58;;;;;;;140.20;52.42;;;;;;;;;;5053892;28;20039;-46
2021/11/15 06:57:26;;;;;;;150.18;56.53;;;;;;;;;;5054039;28;20097;-46
2021/11/15 06:59:52;;;;;;;108.90;52.65;;;;;;;;;;5053845;28;20492;-47
2021/11/15 07:02:19;;;;;;;108.63;47.13;;;;;;;;;;5053928;28;20025;-47
2021/11/15 07:04:45;;;;;;;91.93;46.42;;;;;;;;;;5053940;28;20024;-47
2021/11/15 07:07:13;;;;;;;96.93;48.78;;;;;;;;;;5053741;28;20025;-47
2021/11/15 07:09:39;;;;;;;98.05;47.47;;;;;;;;;;5053667;28;20059;-47
2021/11/15 07:12:05;;;;;;;89.40;44.80;;;;;;;;;;5053383;28;20051;-47
2021/11/15 07:14:31;;;;;;;105.55;49.58;;;;;;;;;;5053619;28;20021;-47
2021/11/15 07:16:57;;;;;;;85.57;44.85;;;;;;;;;;5053611;28;20155;-46
2021/11/15 07:19:23;;;;;;;94.75;50.10;;;;;;;;;;5053615;28;20393;-46
2021/11/15 07:21:50;;;;;;;80.45;45.50;;;;;;;;;;5053502;28;20036;-47
2021/11/15 07:24:16;;;;;;;79.90;46.28;;;;;;;;;;5053433;28;20033;-47
2021/11/15 07:26:42;;;;;;;86.50;46.20;;;;;;;;;;5053295;28;20029;-46
2021/11/15 07:29:08;;;;;;;78.47;43.58;;;;;;;;;;5053475;28;20101;-45
2021/11/15 07:31:34;;;;;;;89.47;47.50;;;;;;;;;;5053427;28;20029;-46
2021/11/15 07:34:02;;;;;;;85.15;44.25;;;;;;;;;;5053596;28;20400;-46
2021/11/15 07:36:28;;;;;;;84.47;44.47;;;;;;;;;;5053411;28;20033;-46
2021/11/15 07:38:54;;;;;;;79.07;43.17;;;;;;;;;;5053245;28;20022;-46
2021/11/15 07:41:20;;;;;;;68.10;40.15;;;;;;;;;;5053261;28;20040;-47
2021/11/15 07:43:46;;;;;;;70.47;38.42;;;;;;;;;;5053279;28;20025;-47
2021/11/15 07:46:12;;;;;;;72.47;43.22;;;;;;;;;;5053133;28;20029;-47
2021/11/15 07:48:38;;;;;;;76.35;41.35;;;;;;;;;;5053213;28;20027;-47
2021/11/15 07:51:04;;;;;;;69.90;42.63;;;;;;;;;;5052999;28;20099;-48
2021/11/15 07:53:35;;;;;;;73.10;42.20;;;;;;;;;;5053151;28;20039;-48
2021/11/15 07:56:02;;;;;;;72.13;43.10;;;;;;;;;;5053064;28;20032;-48
2021/11/15 07:58:30;;;;;;;83.32;46.50;;;;;;;;;;5053222;28;20037;-47
2021/11/15 08:00:56;;;;;;;79.10;42.90;;;;;;;;;;5053272;28;20067;-47
2021/11/15 08:03:22;;;;;;;79.47;41.67;;;;;;;;;;5053306;28;20346;-48
2021/11/15 08:05:48;;;;;;;98.25;45.20;;;;;;;;;;5052939;28;20032;-47
2021/11/15 08:08:15;;;;;;;75.57;45.33;;;;;;;;;;5053300;28;20031;-48
2021/11/15 08:10:41;;;;;;;72.72;43.63;;;;;;;;;;5052723;28;20421;-47
2021/11/15 08:13:07;;;;;;;105.15;52.35;;;;;;;;;;5052981;28;20027;-48
2021/11/15 08:15:33;;;;;;;87.03;48.78;;;;;;;;;;5053118;28;20053;-47
2021/11/15 08:18:01;;;;;;;85.53;50.22;;;;;;;;;;5052983;28;20013;-47
2021/11/15 08:20:31;;;;;;;103.93;47.45;;;;;;;;;;5052852;28;20408;-47
2021/11/15 08:23:03;;;;;;;99.45;47.35;;;;;;;;;;5052825;28;20434;-47
2021/11/15 08:25:49;;;;;;;100.20;51.85;;;;;;;;;;5052273;28;20120;-47
2021/11/15 08:28:16;;;;;;;91.50;50.33;;;;;;;;;;5052728;28;20103;-46
2021/11/15 08:30:42;;;;;;;99.68;54.33;;;;;;;;;;5052651;28;20107;-46
2021/11/15 08:33:09;;;;;;;82.45;49.55;;;;;;;;;;5052638;28;20029;-46
2021/11/15 08:35:35;;;;;;;140.82;75.93;;;;;;;;;;5052567;28;20021;-47
2021/11/15 08:38:16;;;;;;;119.05;65.90;;;;;;;;;;5052621;28;20036;-47
2021/11/15 08:40:48;;;;;;;96.13;55.13;;;;;;;;;;5052273;28;20028;-45
2021/11/15 08:43:15;;;;;;;98.18;53.40;;;;;;;;;;5052677;28;20044;-48
2021/11/15 08:45:41;;;;;;;90.07;45.45;;;;;;;;;;5052379;28;20461;-46
2021/11/15 08:48:07;;;;;;;84.57;47.65;;;;;;;;;;5052595;28;20056;-47
2021/11/15 08:50:34;;;;;;;100.00;56.60;;;;;;;;;;5052269;28;20021;-47
2021/11/15 08:53:01;;;;;;;87.63;48.95;;;;;;;;;;5052366;28;20033;-47
2021/11/15 08:55:28;;;;;;;99.47;51.28;;;;;;;;;;5052494;28;20017;-48
2021/11/15 08:57:54;;;;;;;87.35;50.22;;;;;;;;;;5052309;28;20173;-47
2021/11/15 09:00:21;;;;;;;101.50;54.38;;;;;;;;;;5052306;28;20026;-46
2021/11/15 09:02:47;;;;;;;96.13;52.08;;;;;;;;;;5052294;28;20021;-48
2021/11/15 09:05:13;;;;;;;142.18;78.20;;;;;;;;;;5052177;28;20052;-47
2021/11/15 09:07:40;;;;;;;104.28;60.67;;;;;;;;;;5052295;28;20017;-47
2021/11/15 09:10:08;;;;;;;112.70;65.53;;;;;;;;;;5052073;28;20032;-47
2021/11/15 09:12:35;;;;;;;100.28;58.55;;;;;;;;;;5052261;28;20070;-47
2021/11/15 09:15:01;;;;;;;99.85;58.47;;;;;;;;;;5052131;28;20025;-45
2021/11/15 09:17:27;;;;;;;110.93;64.35;;;;;;;;;;5052504;28;20097;-47
2021/11/15 09:19:53;;;;;;;108.93;64.93;;;;;;;;;;5052139;28;20108;-48
2021/11/15 09:22:20;;;;;;;110.75;65.38;;;;;;;;;;5052170;28;20049;-48
2021/11/15 09:24:48;;;;;;;104.97;62.17;;;;;;;;;;5051971;28;20104;-47
2021/11/15 09:27:14;;;;;;;109.20;66.13;;;;;;;;;;5052041;28;20044;-47
2021/11/15 09:29:44;;;;;;;112.13;65.57;;;;;;;;;;5052199;28;20056;-47
2021/11/15 09:32:11;;;;;;;90.95;56.40;;;;;;;;;;5052072;28;20488;-47
2021/11/15 09:34:40;;;;;;;140.13;80.93;;;;;;;;;;5052201;28;20476;-46
2021/11/15 09:37:06;;;;;;;94.30;55.85;;;;;;;;;;5055655;28;20025;-47
2021/11/15 09:39:33;;;;;;;114.22;66.70;;;;;;;;;;5055424;28;20036;-48
2021/11/15 09:42:00;;;;;;;152.15;83.82;;;;;;;;;;5055323;28;20033;-46
2021/11/15 09:44:26;;;;;;;117.03;66.45;;;;;;;;;;5055525;28;20025;-47
2021/11/15 09:46:52;;;;;;;89.57;54.65;;;;;;;;;;5055393;28;20089;-47
2021/11/15 09:49:19;;;;;;;88.38;51.95;;;;;;;;;;5055286;28;20082;-47
2021/11/15 09:51:47;;;;;;;83.57;51.83;;;;;;;;;;5055128;28;20036;-46
2021/11/15 09:54:14;;;;;;;74.85;49.50;;;;;;;;;;5055252;28;20021;-46
2021/11/15 09:56:41;;;;;;;71.05;45.85;;;;;;;;;;5054761;28;20039;-43
2021/11/15 09:59:11;;;;;;;74.10;47.65;;;;;;;;;;5055211;28;20025;-45
2021/11/15 10:01:37;;;;;;;93.22;53.33;;;;;;;;;;5055278;28;20036;-46
2021/11/15 10:04:03;;;;;;;84.68;49.45;;;;;;;;;;5055040;28;20465;-45
2021/11/15 10:06:29;;;;;;;64.53;42.70;;;;;;;;;;5055027;28;20159;-48
2021/11/15 10:08:57;;;;;;;67.88;42.70;;;;;;;;;;5054941;28;20017;-47
2021/11/15 10:11:24;;;;;;;54.33;36.58;;;;;;;;;;5054895;28;20036;-44
2021/11/15 10:13:54;;;;;;;58.80;37.88;;;;;;;;;;5054932;28;20025;-45
2021/11/15 10:16:24;;;;;;;43.35;27.42;;;;;;;;;;5054838;28;20029;-45
2021/11/15 10:18:57;;;;;;;33.10;21.02;;;;;;;;;;5054960;28;20052;-47
2021/11/15 10:21:36;;;;;;;29.50;19.85;;;;;;;;;;5054580;28;20032;-47
2021/11/15 10:24:13;;;;;;;34.88;22.10;;;;;;;;;;5054921;28;20392;-47
2021/11/15 10:26:57;;;;;;;37.65;25.00;;;;;;;;;;5054406;28;20029;-45
2021/11/15 10:29:27;;;;;;;48.75;30.20;;;;;;;;;;5054691;28;20088;-44
2021/11/15 10:31:55;;;;;;;43.53;28.75;;;;;;;;;;5054566;28;20400;-46
2021/11/15 10:34:32;;;;;;;30.13;20.40;;;;;;;;;;5054603;28;20029;-43
2021/11/15 10:37:04;;;;;;;32.53;21.17;;;;;;;;;;5054399;28;20035;-45
2021/11/15 10:39:41;;;;;;;27.55;19.92;;;;;;;;;;5054284;28;20099;-46
2021/11/15 10:42:11;;;;;;;34.83;19.38;;;;;;;;;;5054350;28;20029;-47
2021/11/15 10:44:43;;;;;;;36.10;19.85;;;;;;;;;;5053865;28;20025;-48
2021/11/15 10:47:09;;;;;;;29.27;18.85;;;;;;;;;;5053380;28;20516;-45
2021/11/15 10:49:35;;;;;;;25.80;16.20;;;;;;;;;;5053967;28;20032;-46
2021/11/15 10:52:08;;;;;;;23.08;16.85;;;;;;;;;;5053899;28;20051;-47
2021/11/15 10:54:41;;;;;;;26.75;16.95;;;;;;;;;;5054064;28;20021;-48
2021/11/15 10:57:17;;;;;;;29.95;19.38;;;;;;;;;;5053622;28;20465;-45
2021/11/15 10:59:45;;;;;;;29.17;17.38;;;;;;;;;;5054076;28;20021;-44
2021/11/15 11:02:30;;;;;;;27.35;17.90;;;;;;;;;;5053914;28;20411;-48
2021/11/15 11:05:05;;;;;;;33.60;21.80;;;;;;;;;;5054000;28;20395;-48
2021/11/15 11:07:32;;;;;;;29.23;18.42;;;;;;;;;;5052834;28;20045;-47
2021/11/15 11:10:04;;;;;;;30.83;19.73;;;;;;;;;;5052149;28;20021;-47
2021/11/15 11:12:34;;;;;;;27.63;18.92;;;;;;;;;;5053090;28;20491;-45
2021/11/15 11:15:20;;;;;;;43.42;26.30;;;;;;;;;;5053988;28;20485;-46
2021/11/15 11:18:02;;;;;;;44.30;25.40;;;;;;;;;;5053739;28;20037;-45
2021/11/15 11:20:35;;;;;;;36.58;22.58;;;;;;;;;;5053557;28;20028;-46
2021/11/15 11:23:57;;;;;;;36.72;21.50;;;;;;;;;;5053862;28;20018;-47
2021/11/15 11:26:29;;;;;;;24.27;16.17;;;;;;;;;;5053286;28;20056;-44
2021/11/15 11:28:58;;;;;;;41.08;20.77;;;;;;;;;;5053206;28;20024;-46
2021/11/15 11:31:25;;;;;;;29.95;17.80;;;;;;;;;;5053692;28;20025;-45
2021/11/15 11:33:51;;;;;;;45.53;23.73;;;;;;;;;;5053471;28;20074;-48
2021/11/15 11:36:18;;;;;;;39.25;22.58;;;;;;;;;;5053346;28;20393;-44
2021/11/15 11:38:48;;;;;;;32.72;21.50;;;;;;;;;;5053268;28;20410;-45
2021/11/15 11:41:20;;;;;;;30.80;21.30;;;;;;;;;;5053176;28;20059;-46
2021/11/15 11:43:47;;;;;;;43.40;27.35;;;;;;;;;;5053215;28;20082;-46
2021/11/15 11:46:14;;;;;;;33.38;21.10;;;;;;;;;;5053199;28;20037;-46
2021/11/15 11:48:41;;;;;;;36.53;23.17;;;;;;;;;;5053210;28;20434;-48
2021/11/15 11:51:07;;;;;;;41.55;26.05;;;;;;;;;;5052412;28;20055;-45
2021/11/15 11:53:35;;;;;;;37.22;23.48;;;;;;;;;;5052733;28;20109;-45
2021/11/15 11:56:13;;;;;;;34.78;21.08;;;;;;;;;;5051490;28;20039;-49
2021/11/15 11:58:46;;;;;;;32.83;20.50;;;;;;;;;;5049381;28;20032;-46
2021/11/15 12:01:20;;;;;;;30.23;19.30;;;;;;;;;;5053038;28;20025;-45
2021/11/15 12:04:05;;;;;;;47.28;28.15;;;;;;;;;;5052905;28;20025;-45
2021/11/15 12:06:32;;;;;;;36.42;21.05;;;;;;;;;;5052852;28;20029;-47
2021/11/15 12:08:59;;;;;;;26.20;17.90;;;;;;;;;;5052918;28;20017;-46
2021/11/15 12:11:29;;;;;;;26.83;15.57;;;;;;;;;;5052851;28;20158;-46
2021/11/15 12:13:56;;;;;;;33.65;20.45;;;;;;;;;;5052792;28;20021;-46
2021/11/15 12:16:22;;;;;;;31.23;19.75;;;;;;;;;;5052727;28;20082;-47
2021/11/15 12:18:58;;;;;;;37.15;20.83;;;;;;;;;;5052917;28;20029;-48
2021/11/15 12:21:28;;;;;;;29.25;18.17;;;;;;;;;;5052584;28;20028;-46
2021/11/15 12:23:54;;;;;;;25.33;16.15;;;;;;;;;;5052738;28;20036;-47
2021/11/15 12:26:23;;;;;;;27.10;16.75;;;;;;;;;;5052517;28;20112;-46
2021/11/15 12:28:50;;;;;;;27.67;16.25;;;;;;;;;;5052413;28;20029;-48
2021/11/15 12:31:36;;;;;;;30.90;17.20;;;;;;;;;;5052541;28;20025;-46
2021/11/15 12:34:06;;;;;;;39.83;22.08;;;;;;;;;;5052456;28;20090;-49
2021/11/15 12:36:39;;;;;;;24.50;15.75;;;;;;;;;;5052485;28;20033;-49
2021/11/15 12:39:09;;;;;;;36.53;20.90;;;;;;;;;;5052777;28;20025;-50
2021/11/15 12:41:36;;;;;;;19.20;13.20;;;;;;;;;;5052603;28;20023;-48
2021/11/15 12:44:06;;;;;;;16.73;11.85;;;;;;;;;;5052631;28;20037;-49
2021/11/15 12:46:46;;;;;;;21.10;12.75;;;;;;;;;;5052482;28;20036;-48
2021/11/15 12:49:22;;;;;;;20.95;12.55;;;;;;;;;;5052686;28;20108;-49
2021/11/15 12:52:04;;;;;;;18.58;12.50;;;;;;;;;;5052483;28;20064;-48
2021/11/15 12:55:05;;;;;;;20.17;13.50;;;;;;;;;;5051284;28;20036;-48
2021/11/15 12:57:33;;;;;;;19.67;13.00;;;;;;;;;;5010740;28;20025;-47
2021/11/15 13:00:03;;;;;;;25.02;13.80;;;;;;;;;;5010732;28;20068;-47
2021/11/15 13:02:32;;;;;;;21.13;14.23;;;;;;;;;;5010887;28;20108;-47
2021/11/15 13:04:59;;;;;;;25.90;14.13;;;;;;;;;;5010304;28;20026;-48
2021/11/15 13:07:25;;;;;;;22.40;15.23;;;;;;;;;;5009946;28;20045;-47
2021/11/15 13:09:52;;;;;;;20.27;13.80;;;;;;;;;;5010166;28;20077;-47
2021/11/15 13:12:19;;;;;;;22.80;13.93;;;;;;;;;;5013781;28;20034;-47
2021/11/15 13:14:45;;;;;;;26.05;15.90;;;;;;;;;;5013731;28;20512;-48
2021/11/15 13:17:16;;;;;;;26.05;14.95;;;;;;;;;;5013538;28;20084;-47
2021/11/15 13:19:45;;;;;;;25.88;15.48;;;;;;;;;;5013798;28;20048;-47
2021/11/15 13:22:11;;;;;;;29.77;17.92;;;;;;;;;;5014177;28;20034;-47
2021/11/15 13:24:41;;;;;;;22.63;14.85;;;;;;;;;;5014204;28;20037;-48
2021/11/15 13:27:08;;;;;;;25.23;15.35;;;;;;;;;;5013917;28;20034;-48
2021/11/15 13:29:34;;;;;;;28.92;18.40;;;;;;;;;;5014132;28;20205;-48
2021/11/15 13:32:00;;;;;;;28.60;18.33;;;;;;;;;;5044316;28;20041;-48
2021/11/15 13:34:27;;;;;;;27.30;18.48;;;;;;;;;;5055774;28;20017;-49
2021/11/15 13:36:53;;;;;;;30.10;18.90;;;;;;;;;;5055521;28;20029;-50
2021/11/15 13:39:19;;;;;;;28.55;19.00;;;;;;;;;;5055878;28;20021;-50
2021/11/15 13:41:45;;;;;;;29.88;17.30;;;;;;;;;;5055614;28;20029;-49
2021/11/15 13:44:13;;;;;;;33.22;20.50;;;;;;;;;;5055770;28;20028;-47
2021/11/15 13:46:39;;;;;;;31.35;19.00;;;;;;;;;;5055532;28;20116;-47
2021/11/15 13:49:07;;;;;;;32.13;19.20;;;;;;;;;;5055534;28;20028;-47
2021/11/15 13:51:33;;;;;;;32.78;19.55;;;;;;;;;;5055282;28;20166;-47
2021/11/15 13:53:59;;;;;;;27.92;19.80;;;;;;;;;;5055440;28;20029;-48
2021/11/15 13:56:28;;;;;;;27.60;19.13;;;;;;;;;;5055316;28;20036;-48
2021/11/15 13:58:54;;;;;;;29.60;19.25;;;;;;;;;;5055213;28;20021;-47
2021/11/15 14:01:20;;;;;;;30.88;18.67;;;;;;;;;;5055209;28;20029;-50
2021/11/15 14:03:46;;;;;;;30.75;19.27;;;;;;;;;;5055182;28;20032;-49
2021/11/15 14:06:15;;;;;;;26.98;18.45;;;;;;;;;;5055209;28;20033;-49
2021/11/15 14:08:41;;;;;;;28.00;20.02;;;;;;;;;;5055373;28;20101;-49
2021/11/15 14:11:10;;;;;;;33.47;19.63;;;;;;;;;;5055255;28;20017;-49
2021/11/15 14:13:36;;;;;;;30.67;20.50;;;;;;;;;;5055451;28;20021;-50
2021/11/15 14:16:03;;;;;;;29.85;19.42;;;;;;;;;;5055375;28;20040;-47